Time;durP1;ratioP1;P1;durP2;ratioP2;P2;SDS_P1;SDS_P2;PMS_P1;PMS_P2;Temp;Humidity;BMP_temperature;BMP_pressure;BME280_temperature;BME280_humidity;BME280_pressure;Samples;Min_cycle;Max_cycle;Signal;HPM_P1;HPM_P2
2022/04/09 00:01:38;;;;;;;13.80;2.60;;;6.60;99.90;;;;;;7343651;19;110422;-89
2022/04/09 00:04:05;;;;;;;10.70;2.40;;;6.60;99.90;;;;;;7343930;19;110007;-87
2022/04/09 00:06:32;;;;;;;13.73;2.90;;;6.60;99.90;;;;;;7341552;19;109510;-88
2022/04/09 00:08:59;;;;;;;16.17;2.60;;;6.60;99.90;;;;;;7341803;19;110871;-87
2022/04/09 00:11:26;;;;;;;15.03;2.00;;;6.60;99.90;;;;;;7343156;19;108570;-88
2022/04/09 00:13:53;;;;;;;19.37;2.40;;;6.60;99.90;;;;;;7348875;19;111825;-88
2022/04/09 00:16:20;;;;;;;20.13;2.70;;;6.50;99.90;;;;;;7344288;19;108694;-87
2022/04/09 00:18:48;;;;;;;19.47;2.67;;;6.60;99.90;;;;;;7345200;19;109022;-88
2022/04/09 00:21:17;;;;;;;22.07;3.10;;;6.50;99.90;;;;;;7343639;19;112866;-88
2022/04/09 00:23:44;;;;;;;22.77;3.00;;;6.50;99.90;;;;;;7340900;19;109227;-88
2022/04/09 00:26:12;;;;;;;17.17;2.30;;;6.50;99.90;;;;;;7341279;19;109615;-88
2022/04/09 00:28:39;;;;;;;17.10;2.77;;;6.50;99.90;;;;;;7341924;19;109792;-89
2022/04/09 00:31:06;;;;;;;15.20;3.20;;;6.50;99.90;;;;;;7343724;19;108539;-88
2022/04/09 00:33:34;;;;;;;17.03;3.00;;;6.40;99.90;;;;;;7343104;19;109339;-88
2022/04/09 00:36:01;;;;;;;19.80;2.63;;;6.40;99.90;;;;;;7349181;19;110362;-88
2022/04/09 00:38:29;;;;;;;19.40;2.80;;;6.40;99.90;;;;;;7343171;19;109585;-88
2022/04/09 00:40:57;;;;;;;16.97;3.50;;;6.40;99.90;;;;;;7343295;19;110878;-88
2022/04/09 00:43:27;;;;;;;21.33;2.97;;;6.40;99.90;;;;;;7343627;19;108649;-88
2022/04/09 00:45:54;;;;;;;24.17;2.63;;;6.40;99.90;;;;;;7342137;19;110165;-88
2022/04/09 00:48:22;;;;;;;17.30;2.50;;;6.30;99.90;;;;;;7340144;19;110598;-87
2022/04/09 00:50:49;;;;;;;11.93;2.50;;;6.30;99.90;;;;;;7343962;19;108305;-88
2022/04/09 00:53:18;;;;;;;12.93;2.40;;;6.30;99.90;;;;;;7342269;19;109941;-87
2022/04/09 00:58:34;;;;;;;19.73;2.80;;;6.30;99.90;;;;;;7342864;19;109145;-87
2022/04/09 01:01:03;;;;;;;16.83;2.70;;;6.20;99.90;;;;;;7344350;19;111399;-88
2022/04/09 01:03:34;;;;;;;13.60;2.67;;;6.30;99.90;;;;;;7344204;19;108788;-88
2022/04/09 01:06:01;;;;;;;22.70;3.07;;;6.30;99.90;;;;;;7340605;19;111762;-89
2022/04/09 01:08:28;;;;;;;16.10;2.50;;;6.30;99.90;;;;;;7340016;19;109862;-88
2022/04/09 01:10:55;;;;;;;15.93;2.70;;;6.30;99.90;;;;;;7347467;19;108347;-88
2022/04/09 01:13:23;;;;;;;17.13;2.83;;;6.30;99.90;;;;;;7348231;19;109973;-88
2022/04/09 01:15:50;;;;;;;13.63;2.40;;;6.30;99.90;;;;;;7346715;19;110256;-88
2022/04/09 01:18:18;;;;;;;16.40;2.47;;;6.20;99.90;;;;;;7354394;19;109270;-88
2022/04/09 01:20:45;;;;;;;17.53;2.80;;;6.20;99.90;;;;;;7351330;19;109550;-89
2022/04/09 01:23:12;;;;;;;14.83;2.33;;;6.20;99.90;;;;;;7350921;19;110082;-89
2022/04/09 01:25:41;;;;;;;17.60;2.87;;;6.10;99.90;;;;;;7348351;19;112889;-88
2022/04/09 01:28:08;;;;;;;18.10;3.27;;;6.10;99.90;;;;;;7347329;19;110395;-88
2022/04/09 01:30:35;;;;;;;11.47;2.23;;;6.10;99.90;;;;;;7347722;19;108793;-88
2022/04/09 01:33:02;;;;;;;16.63;3.00;;;6.10;99.90;;;;;;7349882;19;109670;-90
2022/04/09 01:35:29;;;;;;;13.20;2.83;;;6.10;99.90;;;;;;7348609;19;110238;-89
2022/04/09 01:37:56;;;;;;;14.20;2.60;;;6.00;99.90;;;;;;7348932;19;110304;-88
2022/04/09 01:40:23;;;;;;;19.97;2.43;;;6.00;99.90;;;;;;7354516;19;109303;-88
2022/04/09 01:42:50;;;;;;;21.03;3.43;;;5.90;99.90;;;;;;7349157;19;108903;-88
2022/04/09 01:45:18;;;;;;;17.27;3.40;;;5.90;99.90;;;;;;7347360;19;109663;-88
2022/04/09 01:47:45;;;;;;;14.47;3.30;;;5.90;99.90;;;;;;7345344;19;110240;-88
2022/04/09 01:50:12;;;;;;;14.23;2.73;;;5.90;99.90;;;;;;7346628;19;109287;-89
2022/04/09 01:52:39;;;;;;;17.73;2.93;;;5.90;99.90;;;;;;7348353;19;110865;-88
2022/04/09 01:55:07;;;;;;;15.20;3.00;;;5.80;99.90;;;;;;7348875;19;110320;-86
2022/04/09 01:57:35;;;;;;;15.67;2.30;;;5.80;99.90;;;;;;7345517;19;108190;-88
2022/04/09 02:00:05;;;;;;;14.37;2.97;;;5.80;99.90;;;;;;7347250;19;109631;-88
2022/04/09 02:02:32;;;;;;;11.87;2.50;;;5.80;99.90;;;;;;7354523;19;112705;-88
2022/04/09 02:05:00;;;;;;;13.53;2.33;;;5.80;99.90;;;;;;7345908;19;109568;-89
2022/04/09 02:07:27;;;;;;;19.30;2.90;;;5.70;99.90;;;;;;7343179;19;109769;-88
2022/04/09 02:09:55;;;;;;;16.63;3.30;;;5.70;99.90;;;;;;7346420;19;108559;-89
2022/04/09 02:12:22;;;;;;;17.00;2.47;;;5.70;99.90;;;;;;7346158;19;110197;-88
2022/04/09 02:14:49;;;;;;;17.53;2.40;;;5.70;99.90;;;;;;7347626;19;110445;-88
2022/04/09 02:17:16;;;;;;;12.80;2.53;;;5.70;99.90;;;;;;7346563;19;110965;-87
2022/04/09 02:19:44;;;;;;;24.60;3.63;;;5.60;99.90;;;;;;7348640;19;109910;-88
2022/04/09 02:22:11;;;;;;;16.77;2.80;;;5.60;99.90;;;;;;7344234;19;109603;-89
2022/04/09 02:24:40;;;;;;;16.53;2.33;;;5.60;99.90;;;;;;7353225;19;108280;-88
2022/04/09 02:27:07;;;;;;;20.23;3.23;;;5.60;99.90;;;;;;7346500;19;110441;-88
2022/04/09 02:29:34;;;;;;;16.23;2.93;;;5.50;99.90;;;;;;7345226;19;108428;-88
2022/04/09 02:32:02;;;;;;;16.17;3.30;;;5.50;99.90;;;;;;7347056;19;108354;-88
2022/04/09 02:34:30;;;;;;;14.03;2.70;;;5.50;99.90;;;;;;7348931;19;110411;-88
2022/04/09 02:36:57;;;;;;;9.33;2.17;;;5.50;99.90;;;;;;7347517;19;109143;-89
2022/04/09 02:39:24;;;;;;;14.93;2.57;;;5.50;99.90;;;;;;7348772;19;109434;-88
2022/04/09 02:41:51;;;;;;;19.37;2.60;;;5.50;99.90;;;;;;7345954;19;110218;-88
2022/04/09 02:44:19;;;;;;;15.03;2.93;;;5.40;99.90;;;;;;7347503;19;109832;-88
2022/04/09 02:46:47;;;;;;;15.07;3.03;;;5.40;99.90;;;;;;7351941;19;109421;-88
2022/04/09 02:49:15;;;;;;;15.17;2.87;;;5.40;99.90;;;;;;7348570;19;108881;-88
2022/04/09 02:51:42;;;;;;;14.13;3.23;;;5.30;99.90;;;;;;7348733;19;109586;-89
2022/04/09 02:54:15;;;;;;;21.20;3.57;;;5.30;99.90;;;;;;7346929;19;110586;-89
2022/04/09 02:56:49;;;;;;;19.40;3.23;;;5.30;99.90;;;;;;7347697;19;108830;-89
2022/04/09 02:59:16;;;;;;;17.30;2.97;;;5.30;99.90;;;;;;7348280;19;112775;-89
2022/04/09 03:01:46;;;;;;;16.10;3.17;;;5.20;99.90;;;;;;7346862;19;110217;-88
2022/04/09 03:04:14;;;;;;;16.67;3.10;;;5.30;99.90;;;;;;7348238;19;108496;-89
2022/04/09 03:06:41;;;;;;;17.67;3.63;;;5.20;99.90;;;;;;7351950;19;112505;-88
2022/04/09 03:09:08;;;;;;;13.43;2.93;;;5.20;99.90;;;;;;7347471;19;109067;-89
2022/04/09 03:11:35;;;;;;;12.20;3.13;;;5.20;99.90;;;;;;7347191;19;109564;-88
2022/04/09 03:14:03;;;;;;;22.07;3.10;;;5.20;99.90;;;;;;7347192;19;110632;-88
2022/04/09 03:16:32;;;;;;;18.60;3.13;;;5.20;99.90;;;;;;7345568;19;108593;-89
2022/04/09 03:18:59;;;;;;;18.93;3.13;;;5.20;99.90;;;;;;7345775;19;109234;-89
2022/04/09 03:21:26;;;;;;;19.60;3.00;;;5.20;99.90;;;;;;7348235;19;110248;-89
2022/04/09 03:23:53;;;;;;;14.60;3.03;;;5.20;99.90;;;;;;7348480;19;108509;-88
2022/04/09 03:26:20;;;;;;;18.20;3.10;;;5.10;99.90;;;;;;7345002;19;109879;-89
2022/04/09 03:28:48;;;;;;;16.73;3.37;;;5.10;99.90;;;;;;7348608;19;109613;-89
2022/04/09 03:31:15;;;;;;;19.80;3.37;;;5.10;99.90;;;;;;7346562;19;109679;-88
2022/04/09 03:33:42;;;;;;;16.43;2.63;;;5.10;99.90;;;;;;7345903;19;110121;-89
2022/04/09 03:36:09;;;;;;;19.70;3.50;;;5.10;99.90;;;;;;7345002;19;108269;-89
2022/04/09 03:38:36;;;;;;;17.03;3.10;;;5.10;99.90;;;;;;7347831;19;109610;-89
2022/04/09 03:41:03;;;;;;;19.30;2.60;;;5.10;99.90;;;;;;7344278;19;113169;-87
2022/04/09 03:43:30;;;;;;;22.13;3.63;;;5.10;99.90;;;;;;7343404;19;110040;-88
2022/04/09 03:45:57;;;;;;;20.13;3.53;;;5.10;99.90;;;;;;7344619;19;109656;-88
2022/04/09 03:48:25;;;;;;;16.93;3.10;;;5.00;99.90;;;;;;7341710;19;110453;-89
2022/04/09 03:50:52;;;;;;;15.97;2.97;;;5.00;99.90;;;;;;7352740;19;109135;-89
2022/04/09 03:53:21;;;;;;;22.77;3.50;;;5.00;99.90;;;;;;7345512;19;110312;-88
2022/04/09 03:55:50;;;;;;;16.80;3.10;;;5.00;99.90;;;;;;7344031;19;108605;-88
2022/04/09 03:58:19;;;;;;;14.00;3.13;;;5.00;99.90;;;;;;7343221;19;110050;-88
2022/04/09 04:00:46;;;;;;;13.47;3.00;;;5.00;99.90;;;;;;7345507;19;109929;-89
2022/04/09 04:03:14;;;;;;;21.77;3.03;;;5.00;99.90;;;;;;7346086;19;108580;-89
2022/04/09 04:05:41;;;;;;;21.57;3.57;;;4.90;99.90;;;;;;7342616;19;109668;-88
2022/04/09 04:08:08;;;;;;;20.90;3.33;;;4.90;99.90;;;;;;7342831;19;109745;-88
2022/04/09 04:10:37;;;;;;;14.40;3.07;;;4.90;99.90;;;;;;7345426;19;108448;-87
2022/04/09 04:13:07;;;;;;;18.40;3.07;;;4.90;99.90;;;;;;7346718;19;109512;-88
2022/04/09 04:15:35;;;;;;;14.17;2.80;;;4.80;99.90;;;;;;7345406;19;108472;-88
2022/04/09 04:18:03;;;;;;;17.73;3.47;;;4.80;99.90;;;;;;7343316;19;109613;-88
2022/04/09 04:20:30;;;;;;;13.77;3.43;;;4.80;99.90;;;;;;7343479;19;113247;-87
2022/04/09 04:22:58;;;;;;;20.27;3.30;;;4.80;99.90;;;;;;7343168;19;111064;-87
2022/04/09 04:25:26;;;;;;;14.23;3.40;;;4.80;99.90;;;;;;7345446;19;109473;-88
2022/04/09 04:27:53;;;;;;;14.00;3.40;;;4.80;99.90;;;;;;7342223;19;111707;-87
2022/04/09 04:30:20;;;;;;;14.07;3.23;;;4.80;99.90;;;;;;7344893;19;108301;-88
2022/04/09 04:32:47;;;;;;;15.90;3.77;;;4.80;99.90;;;;;;7344436;19;110381;-89
2022/04/09 04:35:14;;;;;;;14.10;3.03;;;4.70;99.90;;;;;;7351213;19;110262;-88
2022/04/09 04:37:46;;;;;;;13.50;2.97;;;4.70;99.90;;;;;;7344447;19;109622;-88
2022/04/09 04:40:17;;;;;;;18.17;3.40;;;4.70;99.90;;;;;;7342684;19;109035;-87
2022/04/09 04:42:45;;;;;;;17.67;3.40;;;4.70;99.90;;;;;;7341327;19;108682;-88
2022/04/09 04:45:12;;;;;;;18.83;3.47;;;4.70;99.90;;;;;;7340508;19;109215;-88
2022/04/09 04:47:46;;;;;;;18.17;3.37;;;4.70;99.90;;;;;;7341929;19;109719;-87
2022/04/09 04:50:15;;;;;;;13.23;3.30;;;4.70;99.90;;;;;;7341304;19;108882;-88
2022/04/09 04:52:42;;;;;;;23.17;4.03;;;4.70;99.90;;;;;;7342578;19;110419;-88
2022/04/09 04:55:11;;;;;;;17.27;3.60;;;4.70;99.90;;;;;;7340575;19;110427;-89
2022/04/09 04:57:46;;;;;;;19.17;3.83;;;4.70;99.90;;;;;;7346947;19;108641;-88
2022/04/09 05:00:18;;;;;;;20.73;3.50;;;4.70;99.90;;;;;;7343448;19;110248;-87
2022/04/09 05:02:45;;;;;;;17.47;3.27;;;4.70;99.90;;;;;;7343526;19;108073;-87
2022/04/09 05:05:12;;;;;;;16.63;3.97;;;4.80;99.90;;;;;;7341990;19;109592;-88
2022/04/09 05:07:44;;;;;;;17.97;3.50;;;4.80;99.90;;;;;;7340243;19;110501;-87
2022/04/09 05:10:13;;;;;;;19.43;3.30;;;4.80;99.90;;;;;;7342752;19;110441;-87
2022/04/09 05:12:41;;;;;;;19.63;3.47;;;4.80;99.90;;;;;;7338993;19;109594;-88
2022/04/09 05:15:11;;;;;;;16.67;3.27;;;4.80;99.90;;;;;;7340961;19;110432;-88
2022/04/09 05:17:38;;;;;;;18.40;3.20;;;4.80;99.90;;;;;;7346250;19;108570;-88
2022/04/09 05:20:07;;;;;;;18.50;3.50;;;4.90;99.90;;;;;;7342802;19;110287;-87
2022/04/09 05:22:36;;;;;;;18.73;3.17;;;4.90;99.90;;;;;;7342404;19;108542;-88
2022/04/09 05:25:04;;;;;;;18.47;3.50;;;4.90;99.90;;;;;;7342307;19;112123;-87
2022/04/09 05:27:31;;;;;;;17.93;3.37;;;4.90;99.90;;;;;;7338191;19;111557;-87
2022/04/09 05:29:58;;;;;;;14.00;3.20;;;4.90;99.90;;;;;;7340307;19;108725;-88
2022/04/09 05:32:25;;;;;;;16.03;3.20;;;4.90;99.90;;;;;;7341456;19;109953;-88
2022/04/09 05:34:52;;;;;;;15.07;3.53;;;4.90;99.90;;;;;;7341361;19;110552;-89
2022/04/09 05:37:20;;;;;;;17.13;2.90;;;4.90;99.90;;;;;;7342826;19;108341;-88
2022/04/09 05:39:47;;;;;;;26.67;4.43;;;5.00;99.90;;;;;;7347477;19;109711;-88
2022/04/09 05:42:15;;;;;;;16.57;3.43;;;5.00;99.90;;;;;;7341946;19;108682;-88
2022/04/09 05:44:42;;;;;;;16.80;3.37;;;5.00;99.90;;;;;;7341759;19;109884;-87
2022/04/09 05:47:09;;;;;;;25.47;4.60;;;5.00;99.90;;;;;;7341730;19;110123;-88
2022/04/09 05:49:36;;;;;;;18.03;3.87;;;5.00;99.90;;;;;;7341312;19;108498;-88
2022/04/09 05:52:03;;;;;;;17.77;3.50;;;5.00;99.90;;;;;;7340998;19;109710;-88
2022/04/09 05:54:31;;;;;;;24.43;3.90;;;5.10;99.90;;;;;;7340816;19;110124;-87
2022/04/09 05:56:59;;;;;;;22.73;3.80;;;5.10;99.90;;;;;;7343552;19;108676;-87
2022/04/09 05:59:27;;;;;;;21.47;3.97;;;5.00;99.90;;;;;;7347502;19;112691;-87
2022/04/09 06:01:54;;;;;;;24.23;4.40;;;5.00;99.90;;;;;;7352868;19;111129;-88
2022/04/09 06:04:22;;;;;;;21.73;3.93;;;5.00;99.90;;;;;;7347829;19;109597;-87
2022/04/09 06:06:49;;;;;;;13.40;4.23;;;5.10;99.90;;;;;;7347872;19;110448;-88
2022/04/09 06:09:16;;;;;;;23.00;4.23;;;5.10;99.90;;;;;;7345663;19;108345;-87
2022/04/09 06:11:43;;;;;;;24.47;3.80;;;5.10;99.90;;;;;;7345114;19;109679;-87
2022/04/09 06:14:10;;;;;;;20.67;4.07;;;5.20;99.90;;;;;;7347327;19;110607;-88
2022/04/09 06:16:38;;;;;;;20.57;4.20;;;5.20;99.90;;;;;;7347467;19;108743;-88
2022/04/09 06:19:06;;;;;;;16.43;3.77;;;5.30;99.90;;;;;;7347333;19;109932;-88
2022/04/09 06:21:33;;;;;;;19.60;3.97;;;5.30;99.90;;;;;;7348134;19;110229;-87
2022/04/09 06:24:01;;;;;;;26.53;4.33;;;5.30;99.90;;;;;;7351861;19;109121;-88
2022/04/09 06:26:28;;;;;;;20.43;4.63;;;5.40;99.90;;;;;;7346569;19;110093;-88
2022/04/09 06:28:55;;;;;;;14.53;4.00;;;5.40;99.90;;;;;;7343800;19;108514;-88
2022/04/09 06:31:22;;;;;;;28.73;4.93;;;5.50;99.90;;;;;;7341991;19;109564;-87
2022/04/09 06:33:50;;;;;;;27.20;4.60;;;5.50;99.90;;;;;;7341993;19;110387;-85
2022/04/09 06:36:17;;;;;;;24.53;4.50;;;5.60;99.90;;;;;;7338873;19;108890;-83
2022/04/09 06:38:44;;;;;;;17.87;4.50;;;5.70;99.90;;;;;;7340265;19;111998;-82
2022/04/09 06:41:11;;;;;;;16.37;5.00;;;5.80;99.90;;;;;;7341019;19;110450;-82
2022/04/09 06:43:38;;;;;;;20.00;4.57;;;5.80;99.90;;;;;;7342482;19;111222;-83
2022/04/09 06:46:05;;;;;;;27.80;5.00;;;5.80;99.90;;;;;;7346265;19;110791;-84
2022/04/09 06:48:32;;;;;;;23.10;4.37;;;5.80;99.90;;;;;;7343932;19;108488;-86
2022/04/09 06:51:00;;;;;;;19.87;4.40;;;5.90;99.90;;;;;;7344288;19;109709;-87
2022/04/09 06:53:27;;;;;;;20.80;5.03;;;6.00;99.90;;;;;;7345143;19;110351;-87
2022/04/09 06:55:53;;;;;;;24.53;5.70;;;6.10;99.90;;;;;;7341942;19;109118;-85
2022/04/09 06:58:20;;;;;;;;;;;6.20;99.90;;;;;;7341309;19;109880;-85
2022/04/09 07:00:47;;;;;;;30.80;5.40;;;6.30;99.90;;;;;;7346360;19;110578;-88
2022/04/09 07:03:15;;;;;;;26.37;5.27;;;6.40;99.90;;;;;;7342224;19;109745;-86
2022/04/09 07:05:42;;;;;;;17.20;3.87;;;6.50;99.90;;;;;;7346602;19;109322;-87
2022/04/09 07:08:09;;;;;;;21.77;4.23;;;6.60;99.90;;;;;;7341672;19;110706;-88
2022/04/09 07:10:37;;;;;;;21.00;4.53;;;6.80;99.90;;;;;;7342441;19;109582;-87
2022/04/09 07:13:05;;;;;;;23.53;4.03;;;6.90;99.90;;;;;;7345888;19;110389;-87
2022/04/09 07:15:34;;;;;;;27.20;4.47;;;7.00;99.90;;;;;;7342243;19;108286;-85
2022/04/09 07:18:01;;;;;;;25.60;4.63;;;7.10;99.90;;;;;;7345053;19;109224;-87
2022/04/09 07:20:29;;;;;;;21.67;3.67;;;7.20;99.90;;;;;;7345469;19;113371;-90
2022/04/09 07:22:56;;;;;;;22.00;3.83;;;7.30;99.90;;;;;;7346703;19;109212;-87
2022/04/09 07:25:23;;;;;;;23.73;3.73;;;7.50;99.90;;;;;;7342930;19;109843;-86
2022/04/09 07:27:50;;;;;;;19.90;3.40;;;7.60;99.90;;;;;;7348278;19;113117;-85
2022/04/09 07:30:20;;;;;;;20.40;3.47;;;7.70;99.90;;;;;;7343491;19;110316;-85
2022/04/09 07:32:48;;;;;;;17.73;3.57;;;7.80;99.90;;;;;;7341840;19;110678;-86
2022/04/09 07:35:15;;;;;;;22.57;3.90;;;7.90;99.90;;;;;;7342327;19;108950;-91
2022/04/09 07:37:47;;;;;;;21.47;3.00;;;8.00;99.90;;;;;;7342669;19;109145;-88
2022/04/09 07:40:15;;;;;;;17.53;3.33;;;8.10;99.90;;;;;;7340675;19;110160;-88
2022/04/09 07:42:44;;;;;;;20.73;3.63;;;8.20;99.90;;;;;;7345556;19;109212;-89
2022/04/09 07:45:13;;;;;;;21.77;3.83;;;8.40;99.90;;;;;;7343778;19;111787;-87
2022/04/09 07:47:41;;;;;;;18.00;3.57;;;8.40;99.90;;;;;;7342147;19;110355;-84
2022/04/09 07:50:10;;;;;;;14.47;3.50;;;8.50;99.90;;;;;;7342289;19;109203;-86
2022/04/09 07:52:44;;;;;;;22.50;3.67;;;8.60;99.90;;;;;;7339926;19;113003;-87
2022/04/09 07:55:15;;;;;;;11.75;2.85;;;8.70;99.90;;;;;;7342629;19;108807;-86
2022/04/09 07:57:47;;;;;;;18.13;3.53;;;8.80;99.90;;;;;;7338528;19;109532;-90
2022/04/09 08:00:15;;;;;;;16.92;3.15;;;8.90;99.90;;;;;;7343195;19;112845;-92
2022/04/09 08:02:42;;;;;;;16.77;3.20;;;9.00;99.90;;;;;;7344603;19;110540;-91
2022/04/09 08:05:10;;;;;;;17.08;3.10;;;9.10;99.90;;;;;;7344006;19;113981;-92
2022/04/09 08:07:38;;;;;;;18.23;3.72;;;9.30;99.90;;;;;;7344171;19;109056;-90
2022/04/09 08:10:08;;;;;;;15.55;3.38;;;9.30;99.90;;;;;;7341917;19;109975;-91
2022/04/09 08:12:35;;;;;;;16.95;3.60;;;9.30;99.90;;;;;;7350765;19;109313;-92
2022/04/09 08:15:03;;;;;;;10.05;3.03;;;9.40;99.90;;;;;;7348627;19;111175;-94
2022/04/09 08:17:33;;;;;;;15.27;3.05;;;9.50;99.90;;;;;;7351572;19;110535;-94
2022/04/09 08:20:00;;;;;;;10.27;2.78;;;9.50;99.90;;;;;;7345568;19;109478;-94
2022/04/09 08:22:28;;;;;;;12.30;2.35;;;9.60;99.90;;;;;;7348858;19;108878;-94
2022/04/09 08:24:56;;;;;;;15.68;2.75;;;9.60;99.90;;;;;;7348327;19;111660;-93
2022/04/09 08:27:24;;;;;;;10.93;2.33;;;9.70;99.90;;;;;;7346253;19;109031;-93
2022/04/09 08:29:51;;;;;;;10.77;2.28;;;9.80;99.90;;;;;;7345791;19;108631;-94
2022/04/09 08:32:18;;;;;;;12.68;2.75;;;10.00;99.90;;;;;;7353509;19;110816;-94
2022/04/09 08:34:48;;;;;;;8.35;2.25;;;10.00;99.90;;;;;;7366647;19;109598;-95
2022/04/09 08:37:15;;;;;;;13.77;2.85;;;10.20;99.90;;;;;;7344450;19;108133;-87
2022/04/09 08:39:42;;;;;;;10.13;2.03;;;10.20;99.90;;;;;;7342288;19;111061;-88
2022/04/09 08:42:10;;;;;;;11.77;2.75;;;10.30;99.90;;;;;;7339075;19;110542;-87
2022/04/09 08:44:37;;;;;;;8.80;2.55;;;10.30;99.90;;;;;;7338709;19;112233;-88
2022/04/09 08:47:05;;;;;;;6.68;1.98;;;10.20;99.90;;;;;;7338244;19;113992;-87
2022/04/09 08:49:37;;;;;;;8.85;2.42;;;10.40;99.90;;;;;;7338874;19;111419;-87
2022/04/09 08:52:12;;;;;;;12.27;2.35;;;10.40;99.90;;;;;;7337200;19;111164;-84
2022/04/09 08:54:40;;;;;;;12.95;2.85;;;10.50;99.90;;;;;;7338440;19;110286;-84
2022/04/09 08:57:08;;;;;;;14.85;2.53;;;10.50;99.90;;;;;;7343588;19;108471;-85
2022/04/09 08:59:35;;;;;;;11.35;2.33;;;10.50;99.90;;;;;;7338628;19;109722;-85
2022/04/09 09:02:03;;;;;;;15.13;2.50;;;10.60;99.90;;;;;;7340750;19;109190;-88
2022/04/09 09:04:30;;;;;;;7.15;1.60;;;10.60;99.90;;;;;;7338528;19;110003;-86
2022/04/09 09:07:43;;;;;;;11.98;2.10;;;10.70;99.90;;;;;;7338865;19;112510;-85
2022/04/09 09:10:15;;;;;;;8.35;1.85;;;10.80;99.30;;;;;;7333032;19;111399;-85
2022/04/09 09:12:42;;;;;;;12.60;2.58;;;10.70;99.40;;;;;;7334059;19;109670;-86
2022/04/09 09:15:11;;;;;;;5.95;1.77;;;10.80;99.20;;;;;;7332553;19;110204;-86
2022/04/09 09:17:38;;;;;;;6.05;1.88;;;10.90;98.50;;;;;;7339093;19;109603;-85
2022/04/09 09:20:13;;;;;;;9.50;1.77;;;10.90;99.20;;;;;;7331616;19;113131;-85
2022/04/09 09:22:42;;;;;;;7.90;1.60;;;11.10;97.90;;;;;;7333484;19;109170;-84
2022/04/09 09:25:11;;;;;;;7.55;1.90;;;11.10;98.00;;;;;;7333876;19;110536;-85
2022/04/09 09:27:42;;;;;;;5.82;1.45;;;11.10;98.30;;;;;;7332320;19;113852;-84
2022/04/09 09:30:12;;;;;;;6.10;2.08;;;11.20;98.80;;;;;;7333041;19;110438;-85
2022/04/09 09:32:41;;;;;;;11.13;2.35;;;11.40;98.20;;;;;;7340004;19;110051;-85
2022/04/09 09:35:12;;;;;;;5.40;1.60;;;11.50;98.20;;;;;;7341055;19;113046;-84
2022/04/09 09:37:39;;;;;;;8.75;2.33;;;11.50;97.90;;;;;;7340838;19;108437;-85
2022/04/09 09:40:06;;;;;;;10.40;2.42;;;11.50;97.70;;;;;;7344052;19;109779;-83
2022/04/09 09:42:35;;;;;;;10.38;1.67;;;11.50;97.70;;;;;;7339264;19;109587;-83
2022/04/09 09:45:04;;;;;;;7.40;1.90;;;11.40;97.10;;;;;;7344021;19;109673;-86
2022/04/09 09:47:31;;;;;;;8.82;2.40;;;11.50;97.40;;;;;;7341519;19;111015;-85
2022/04/09 09:49:58;;;;;;;5.55;1.50;;;11.60;96.10;;;;;;7343225;19;110426;-84
2022/04/09 09:52:28;;;;;;;9.48;1.42;;;11.60;95.50;;;;;;7344360;19;109376;-86
2022/04/09 09:55:06;;;;;;;6.03;1.50;;;11.60;95.50;;;;;;7343927;19;110173;-83
2022/04/09 09:57:33;;;;;;;6.38;1.50;;;11.50;96.40;;;;;;7342748;19;108334;-82
2022/04/09 10:00:07;;;;;;;4.88;1.60;;;11.80;96.90;;;;;;7344184;19;109451;-82
2022/04/09 10:02:34;;;;;;;5.18;1.10;;;11.90;96.70;;;;;;7349939;19;110473;-82
2022/04/09 10:05:01;;;;;;;3.40;0.93;;;12.00;95.30;;;;;;7344150;19;108935;-84
2022/04/09 10:07:28;;;;;;;4.57;1.17;;;11.90;94.30;;;;;;7342711;19;110182;-83
2022/04/09 10:09:55;;;;;;;7.30;1.48;;;11.90;94.90;;;;;;7342691;19;108499;-84
2022/04/09 10:12:24;;;;;;;7.65;1.70;;;12.00;95.10;;;;;;7340853;19;112958;-84
2022/04/09 10:14:54;;;;;;;6.85;1.70;;;11.90;95.20;;;;;;7341710;19;110942;-84
2022/04/09 10:17:22;;;;;;;6.68;1.48;;;11.90;95.40;;;;;;7342635;19;108877;-85
2022/04/09 10:19:58;;;;;;;5.03;1.20;;;12.10;95.40;;;;;;7342912;19;109586;-84
2022/04/09 10:22:29;;;;;;;4.40;1.50;;;12.20;95.50;;;;;;7341632;19;110504;-85
2022/04/09 10:24:58;;;;;;;5.32;1.10;;;12.40;94.70;;;;;;7350258;19;109190;-86
2022/04/09 10:27:37;;;;;;;5.90;1.13;;;12.40;94.00;;;;;;7342685;19;110162;-85
2022/04/09 10:30:19;;;;;;;3.92;1.02;;;12.30;92.60;;;;;;7343184;19;109590;-85
2022/04/09 10:32:48;;;;;;;4.03;1.27;;;12.10;92.90;;;;;;7340746;19;112321;-85
2022/04/09 10:35:39;;;;;;;5.82;1.55;;;11.90;93.30;;;;;;7343241;19;110182;-85
2022/04/09 10:38:09;;;;;;;6.10;1.30;;;11.80;93.40;;;;;;7343672;19;109017;-86
2022/04/09 10:40:50;;;;;;;6.07;1.60;;;11.80;94.20;;;;;;7343688;19;109317;-86
2022/04/09 10:43:23;;;;;;;4.22;1.15;;;11.90;94.30;;;;;;7338408;19;112233;-84
2022/04/09 10:46:04;;;;;;;5.30;1.20;;;12.00;94.50;;;;;;7340391;19;109763;-85
2022/04/09 10:48:33;;;;;;;6.43;1.45;;;12.30;94.10;;;;;;7347462;19;112921;-85
2022/04/09 10:51:08;;;;;;;5.25;1.38;;;12.30;93.80;;;;;;7339199;19;109116;-85
2022/04/09 10:53:38;;;;;;;6.15;1.15;;;12.20;93.80;;;;;;7343884;19;111882;-86
2022/04/09 10:56:24;;;;;;;5.63;1.20;;;12.20;93.30;;;;;;7341602;19;112633;-85
2022/04/09 10:59:13;;;;;;;5.47;1.17;;;12.10;93.00;;;;;;7343470;19;109371;-85
2022/04/09 11:01:46;;;;;;;4.68;1.38;;;12.20;93.40;;;;;;7343188;19;109466;-85
2022/04/09 11:04:34;;;;;;;4.13;1.30;;;12.30;93.60;;;;;;7342078;19;110212;-84
2022/04/09 11:07:05;;;;;;;4.57;1.15;;;12.40;93.80;;;;;;7342443;19;108849;-85
2022/04/09 11:09:58;;;;;;;2.72;1.13;;;12.50;94.00;;;;;;7342126;19;109864;-84
2022/04/09 11:12:31;;;;;;;5.35;1.20;;;12.60;93.90;;;;;;7343667;19;110209;-85
2022/04/09 11:15:00;;;;;;;5.35;1.20;;;12.70;93.70;;;;;;7338513;19;110793;-84
2022/04/09 11:17:47;;;;;;;7.57;1.35;;;12.80;93.10;;;;;;7339853;19;110016;-83
2022/04/09 11:20:16;;;;;;;5.72;1.00;;;12.90;93.20;;;;;;7338283;19;109827;-84
2022/04/09 11:22:53;;;;;;;3.25;0.70;;;12.80;88.50;;;;;;7341489;19;109425;-85
2022/04/09 11:25:25;;;;;;;3.22;0.90;;;12.70;89.10;;;;;;7339868;19;110243;-86
2022/04/09 11:28:13;;;;;;;4.47;0.90;;;12.60;88.40;;;;;;7337639;19;110336;-85
2022/04/09 11:30:58;;;;;;;3.28;0.80;;;12.60;84.00;;;;;;7336724;19;109330;-85
2022/04/09 11:33:25;;;;;;;5.07;0.82;;;12.40;85.60;;;;;;7344847;19;112192;-87
2022/04/09 11:35:53;;;;;;;2.17;0.70;;;12.30;88.70;;;;;;7338063;19;110546;-90
2022/04/09 11:38:27;;;;;;;2.28;0.98;;;12.20;88.70;;;;;;7335135;19;109920;-89
2022/04/09 11:40:55;;;;;;;4.25;0.85;;;12.20;88.20;;;;;;7337836;19;108577;-89
2022/04/09 11:43:23;;;;;;;2.92;0.80;;;12.20;86.30;;;;;;7340037;19;109006;-89
2022/04/09 11:45:51;;;;;;;3.55;0.88;;;12.30;88.80;;;;;;7343452;19;112179;-89
2022/04/09 11:48:21;;;;;;;1.95;0.77;;;12.60;85.90;;;;;;7343380;19;108571;-91
2022/04/09 11:50:48;;;;;;;3.00;0.90;;;12.90;84.20;;;;;;7341060;19;111972;-90
2022/04/09 11:53:25;;;;;;;3.15;0.85;;;13.00;84.00;;;;;;7340543;19;110448;-86
2022/04/09 11:56:00;;;;;;;2.87;0.80;;;13.10;82.60;;;;;;7345773;19;110674;-90
2022/04/09 11:58:35;;;;;;;2.60;0.55;;;13.20;80.80;;;;;;7342327;19;109962;-89
2022/04/09 12:01:07;;;;;;;1.42;0.47;;;13.20;77.30;;;;;;7344404;19;108396;-92
2022/04/09 12:03:34;;;;;;;3.13;0.85;;;13.40;76.30;;;;;;7345435;19;108383;-90
2022/04/09 12:06:02;;;;;;;2.88;0.82;;;13.60;76.90;;;;;;7345217;19;112763;-92
2022/04/09 12:08:33;;;;;;;2.85;0.90;;;13.80;76.60;;;;;;7343607;19;109849;-94
2022/04/09 12:11:11;;;;;;;3.63;1.00;;;13.90;76.10;;;;;;7341938;19;109516;-91
2022/04/09 12:13:39;;;;;;;3.85;0.82;;;13.90;75.30;;;;;;7338941;19;110483;-91
2022/04/09 12:16:17;;;;;;;2.88;1.17;;;14.00;75.30;;;;;;7339804;19;108308;-89
2022/04/09 12:18:46;;;;;;;3.40;0.80;;;14.20;77.30;;;;;;7349004;19;109620;-91
2022/04/09 12:21:20;;;;;;;4.32;0.82;;;14.20;78.70;;;;;;7340897;19;108505;-88
2022/04/09 12:24:00;;;;;;;3.17;0.70;;;14.40;76.80;;;;;;7345164;19;109543;-90
2022/04/09 12:26:27;;;;;;;2.63;0.88;;;14.60;74.40;;;;;;7345097;19;110039;-87
2022/04/09 12:29:26;;;;;;;3.15;1.08;;;14.70;73.90;;;;;;7345633;19;109428;-89
2022/04/09 12:32:14;;;;;;;2.97;0.90;;;14.70;75.70;;;;;;7346915;19;109528;-93
2022/04/09 12:35:07;;;;;;;3.15;1.25;;;14.80;75.80;;;;;;7342367;19;110331;-91
2022/04/09 12:37:44;;;;;;;4.05;0.98;;;14.80;74.10;;;;;;7338097;19;110462;-88
2022/04/09 12:40:17;;;;;;;3.17;0.90;;;14.90;76.10;;;;;;7337491;19;112032;-87
2022/04/09 12:42:46;;;;;;;2.70;0.80;;;15.00;75.10;;;;;;7342899;19;111884;-89
2022/04/09 12:45:15;;;;;;;3.13;0.73;;;15.10;73.20;;;;;;7338067;19;109713;-88
2022/04/09 12:47:53;;;;;;;2.60;0.90;;;15.20;72.60;;;;;;7340772;19;111127;-87
2022/04/09 12:50:24;;;;;;;3.53;0.70;;;15.10;71.60;;;;;;7338384;19;110258;-87